sensor_id;sensor_type;location;lat;lon;timestamp;P1;durP1;ratioP1;P2;durP2;ratioP2
70545;SDS011;58098;51.680;5.134;2023-07-20T00:01:30;16.87;;;9.20;;
70545;SDS011;58098;51.680;5.134;2023-07-20T00:03:55;18.73;;;9.27;;
70545;SDS011;58098;51.680;5.134;2023-07-20T00:06:24;19.10;;;8.80;;
70545;SDS011;58098;51.680;5.134;2023-07-20T00:08:52;24.60;;;10.43;;
70545;SDS011;58098;51.680;5.134;2023-07-20T00:11:21;19.13;;;11.70;;
70545;SDS011;58098;51.680;5.134;2023-07-20T00:13:50;23.58;;;11.98;;
70545;SDS011;58098;51.680;5.134;2023-07-20T00:16:15;17.60;;;12.17;;
70545;SDS011;58098;51.680;5.134;2023-07-20T00:18:41;23.27;;;13.17;;
70545;SDS011;58098;51.680;5.134;2023-07-20T00:21:06;22.13;;;12.73;;
70545;SDS011;58098;51.680;5.134;2023-07-20T00:23:31;20.63;;;12.97;;
70545;SDS011;58098;51.680;5.134;2023-07-20T00:25:57;20.42;;;12.48;;
70545;SDS011;58098;51.680;5.134;2023-07-20T00:28:22;26.23;;;14.43;;
70545;SDS011;58098;51.680;5.134;2023-07-20T00:30:47;20.30;;;12.43;;
70545;SDS011;58098;51.680;5.134;2023-07-20T00:33:16;27.60;;;14.90;;
70545;SDS011;58098;51.680;5.134;2023-07-20T00:35:42;25.75;;;14.68;;
70545;SDS011;58098;51.680;5.134;2023-07-20T00:38:07;23.73;;;14.00;;
70545;SDS011;58098;51.680;5.134;2023-07-20T00:40:39;23.73;;;14.43;;
70545;SDS011;58098;51.680;5.134;2023-07-20T00:43:05;24.17;;;15.45;;
70545;SDS011;58098;51.680;5.134;2023-07-20T00:45:31;23.97;;;14.27;;
70545;SDS011;58098;51.680;5.134;2023-07-20T00:47:58;27.80;;;16.60;;
70545;SDS011;58098;51.680;5.134;2023-07-20T00:50:24;26.23;;;15.43;;
70545;SDS011;58098;51.680;5.134;2023-07-20T00:52:51;26.42;;;15.35;;
70545;SDS011;58098;51.680;5.134;2023-07-20T00:55:17;22.77;;;14.93;;
70545;SDS011;58098;51.680;5.134;2023-07-20T00:57:43;25.38;;;17.33;;
70545;SDS011;58098;51.680;5.134;2023-07-20T01:00:09;27.70;;;16.50;;
70545;SDS011;58098;51.680;5.134;2023-07-20T01:02:35;27.52;;;16.60;;
70545;SDS011;58098;51.680;5.134;2023-07-20T01:05:01;24.50;;;16.27;;
70545;SDS011;58098;51.680;5.134;2023-07-20T01:07:31;26.85;;;17.13;;
70545;SDS011;58098;51.680;5.134;2023-07-20T01:10:08;25.92;;;17.05;;
70545;SDS011;58098;51.680;5.134;2023-07-20T01:12:42;25.97;;;15.40;;
70545;SDS011;58098;51.680;5.134;2023-07-20T01:15:11;23.45;;;14.70;;
70545;SDS011;58098;51.680;5.134;2023-07-20T01:17:37;24.95;;;15.68;;
70545;SDS011;58098;51.680;5.134;2023-07-20T01:20:02;26.53;;;17.27;;
70545;SDS011;58098;51.680;5.134;2023-07-20T01:25:21;29.60;;;18.87;;
70545;SDS011;58098;51.680;5.134;2023-07-20T01:30:45;33.05;;;19.27;;
70545;SDS011;58098;51.680;5.134;2023-07-20T01:33:17;33.08;;;20.02;;
70545;SDS011;58098;51.680;5.134;2023-07-20T01:35:44;32.00;;;20.85;;
70545;SDS011;58098;51.680;5.134;2023-07-20T01:38:13;31.10;;;20.20;;
70545;SDS011;58098;51.680;5.134;2023-07-20T01:40:39;34.17;;;20.95;;
70545;SDS011;58098;51.680;5.134;2023-07-20T01:43:05;35.53;;;21.13;;
70545;SDS011;58098;51.680;5.134;2023-07-20T01:45:31;32.23;;;20.73;;
70545;SDS011;58098;51.680;5.134;2023-07-20T01:47:56;34.10;;;21.10;;
70545;SDS011;58098;51.680;5.134;2023-07-20T01:50:22;36.67;;;22.40;;
70545;SDS011;58098;51.680;5.134;2023-07-20T01:52:47;34.40;;;22.00;;
70545;SDS011;58098;51.680;5.134;2023-07-20T01:55:12;35.77;;;22.37;;
70545;SDS011;58098;51.680;5.134;2023-07-20T01:57:38;42.23;;;24.67;;
70545;SDS011;58098;51.680;5.134;2023-07-20T02:00:04;41.88;;;24.83;;
70545;SDS011;58098;51.680;5.134;2023-07-20T02:02:30;35.33;;;22.48;;
70545;SDS011;58098;51.680;5.134;2023-07-20T02:04:55;44.67;;;24.77;;
70545;SDS011;58098;51.680;5.134;2023-07-20T02:07:21;37.40;;;23.00;;
70545;SDS011;58098;51.680;5.134;2023-07-20T02:09:46;41.00;;;24.10;;
70545;SDS011;58098;51.680;5.134;2023-07-20T02:12:12;45.90;;;25.80;;
70545;SDS011;58098;51.680;5.134;2023-07-20T02:14:37;44.33;;;25.97;;
70545;SDS011;58098;51.680;5.134;2023-07-20T02:17:02;42.43;;;26.07;;
70545;SDS011;58098;51.680;5.134;2023-07-20T02:19:30;45.13;;;25.90;;
70545;SDS011;58098;51.680;5.134;2023-07-20T02:21:55;42.03;;;24.70;;
70545;SDS011;58098;51.680;5.134;2023-07-20T02:24:21;42.70;;;23.73;;
70545;SDS011;58098;51.680;5.134;2023-07-20T02:26:46;36.37;;;22.33;;
70545;SDS011;58098;51.680;5.134;2023-07-20T02:29:11;42.60;;;23.40;;
70545;SDS011;58098;51.680;5.134;2023-07-20T02:31:37;36.30;;;21.10;;
70545;SDS011;58098;51.680;5.134;2023-07-20T02:34:04;36.70;;;21.23;;
70545;SDS011;58098;51.680;5.134;2023-07-20T02:36:33;36.33;;;20.27;;
70545;SDS011;58098;51.680;5.134;2023-07-20T02:38:59;28.77;;;18.67;;
70545;SDS011;58098;51.680;5.134;2023-07-20T02:41:25;31.45;;;20.15;;
70545;SDS011;58098;51.680;5.134;2023-07-20T02:43:50;31.23;;;20.07;;
70545;SDS011;58098;51.680;5.134;2023-07-20T02:46:16;29.13;;;18.63;;
70545;SDS011;58098;51.680;5.134;2023-07-20T02:48:41;31.83;;;20.17;;
70545;SDS011;58098;51.680;5.134;2023-07-20T02:51:06;29.47;;;18.63;;
70545;SDS011;58098;51.680;5.134;2023-07-20T02:53:32;30.40;;;18.48;;
70545;SDS011;58098;51.680;5.134;2023-07-20T02:55:58;32.17;;;20.63;;
70545;SDS011;58098;51.680;5.134;2023-07-20T02:58:23;35.35;;;21.50;;
70545;SDS011;58098;51.680;5.134;2023-07-20T03:00:49;40.17;;;23.97;;
70545;SDS011;58098;51.680;5.134;2023-07-20T03:03:14;35.57;;;23.67;;
70545;SDS011;58098;51.680;5.134;2023-07-20T03:05:40;37.93;;;22.17;;
70545;SDS011;58098;51.680;5.134;2023-07-20T03:08:07;35.95;;;23.50;;
70545;SDS011;58098;51.680;5.134;2023-07-20T03:10:32;41.05;;;24.65;;
70545;SDS011;58098;51.680;5.134;2023-07-20T03:12:58;44.20;;;25.50;;
70545;SDS011;58098;51.680;5.134;2023-07-20T03:15:23;39.57;;;26.57;;
70545;SDS011;58098;51.680;5.134;2023-07-20T03:17:49;40.20;;;24.58;;
70545;SDS011;58098;51.680;5.134;2023-07-20T03:20:15;44.20;;;24.80;;
70545;SDS011;58098;51.680;5.134;2023-07-20T03:22:40;42.72;;;25.10;;
70545;SDS011;58098;51.680;5.134;2023-07-20T03:25:06;38.63;;;24.20;;
70545;SDS011;58098;51.680;5.134;2023-07-20T03:27:32;42.88;;;25.65;;
70545;SDS011;58098;51.680;5.134;2023-07-20T03:29:57;31.93;;;20.47;;
70545;SDS011;58098;51.680;5.134;2023-07-20T03:32:22;40.80;;;23.80;;
70545;SDS011;58098;51.680;5.134;2023-07-20T03:34:47;39.40;;;24.20;;
70545;SDS011;58098;51.680;5.134;2023-07-20T03:37:13;41.03;;;24.10;;
70545;SDS011;58098;51.680;5.134;2023-07-20T03:39:38;39.17;;;24.00;;
70545;SDS011;58098;51.680;5.134;2023-07-20T03:42:04;41.63;;;24.27;;
70545;SDS011;58098;51.680;5.134;2023-07-20T03:44:30;41.03;;;24.50;;
70545;SDS011;58098;51.680;5.134;2023-07-20T03:46:55;40.13;;;23.88;;
70545;SDS011;58098;51.680;5.134;2023-07-20T03:49:21;35.83;;;22.97;;
70545;SDS011;58098;51.680;5.134;2023-07-20T03:51:46;39.77;;;21.90;;
70545;SDS011;58098;51.680;5.134;2023-07-20T03:54:11;37.77;;;23.40;;
70545;SDS011;58098;51.680;5.134;2023-07-20T03:56:37;38.30;;;23.63;;
70545;SDS011;58098;51.680;5.134;2023-07-20T03:59:02;38.07;;;22.80;;
70545;SDS011;58098;51.680;5.134;2023-07-20T04:01:28;41.00;;;23.87;;
70545;SDS011;58098;51.680;5.134;2023-07-20T04:03:53;36.83;;;22.43;;
70545;SDS011;58098;51.680;5.134;2023-07-20T04:06:18;37.50;;;23.17;;
70545;SDS011;58098;51.680;5.134;2023-07-20T04:08:44;40.10;;;22.65;;
70545;SDS011;58098;51.680;5.134;2023-07-20T04:11:12;37.13;;;22.20;;
70545;SDS011;58098;51.680;5.134;2023-07-20T04:13:37;38.58;;;22.45;;
70545;SDS011;58098;51.680;5.134;2023-07-20T04:16:03;35.33;;;21.17;;
70545;SDS011;58098;51.680;5.134;2023-07-20T04:18:28;33.80;;;22.57;;
70545;SDS011;58098;51.680;5.134;2023-07-20T04:20:53;36.77;;;23.47;;
70545;SDS011;58098;51.680;5.134;2023-07-20T04:23:19;38.67;;;22.80;;
70545;SDS011;58098;51.680;5.134;2023-07-20T04:25:44;36.40;;;22.17;;
70545;SDS011;58098;51.680;5.134;2023-07-20T04:28:09;42.80;;;23.87;;
70545;SDS011;58098;51.680;5.134;2023-07-20T04:30:35;35.03;;;22.40;;
70545;SDS011;58098;51.680;5.134;2023-07-20T04:33:01;35.28;;;21.75;;
70545;SDS011;58098;51.680;5.134;2023-07-20T04:35:46;36.80;;;21.73;;
70545;SDS011;58098;51.680;5.134;2023-07-20T04:38:18;36.55;;;22.80;;
70545;SDS011;58098;51.680;5.134;2023-07-20T04:40:45;38.35;;;22.58;;
70545;SDS011;58098;51.680;5.134;2023-07-20T04:43:11;29.30;;;19.43;;
70545;SDS011;58098;51.680;5.134;2023-07-20T04:45:36;29.90;;;17.90;;
70545;SDS011;58098;51.680;5.134;2023-07-20T04:48:02;32.20;;;19.63;;
70545;SDS011;58098;51.680;5.134;2023-07-20T04:50:27;26.97;;;17.47;;
70545;SDS011;58098;51.680;5.134;2023-07-20T04:52:53;30.40;;;18.73;;
70545;SDS011;58098;51.680;5.134;2023-07-20T04:55:18;29.40;;;18.63;;
70545;SDS011;58098;51.680;5.134;2023-07-20T04:57:44;26.13;;;16.30;;
70545;SDS011;58098;51.680;5.134;2023-07-20T05:00:09;25.13;;;16.57;;
70545;SDS011;58098;51.680;5.134;2023-07-20T05:02:36;26.15;;;16.52;;
70545;SDS011;58098;51.680;5.134;2023-07-20T05:05:02;21.85;;;15.55;;
70545;SDS011;58098;51.680;5.134;2023-07-20T05:07:30;22.40;;;15.57;;
70545;SDS011;58098;51.680;5.134;2023-07-20T05:09:56;22.27;;;14.15;;
70545;SDS011;58098;51.680;5.134;2023-07-20T05:12:21;23.37;;;15.43;;
70545;SDS011;58098;51.680;5.134;2023-07-20T05:14:47;21.80;;;13.90;;
70545;SDS011;58098;51.680;5.134;2023-07-20T05:17:12;18.13;;;12.97;;
70545;SDS011;58098;51.680;5.134;2023-07-20T05:19:37;21.07;;;13.47;;
70545;SDS011;58098;51.680;5.134;2023-07-20T05:22:03;20.73;;;12.55;;
70545;SDS011;58098;51.680;5.134;2023-07-20T05:24:29;17.87;;;11.83;;
70545;SDS011;58098;51.680;5.134;2023-07-20T05:26:54;17.77;;;12.30;;
70545;SDS011;58098;51.680;5.134;2023-07-20T05:29:20;18.08;;;12.32;;
70545;SDS011;58098;51.680;5.134;2023-07-20T05:31:45;18.90;;;12.03;;
70545;SDS011;58098;51.680;5.134;2023-07-20T05:34:10;16.33;;;11.23;;
70545;SDS011;58098;51.680;5.134;2023-07-20T05:36:35;17.30;;;11.90;;
70545;SDS011;58098;51.680;5.134;2023-07-20T05:39:02;14.48;;;11.30;;
70545;SDS011;58098;51.680;5.134;2023-07-20T05:41:27;13.50;;;10.93;;
70545;SDS011;58098;51.680;5.134;2023-07-20T05:43:52;12.77;;;10.17;;
70545;SDS011;58098;51.680;5.134;2023-07-20T05:46:18;14.40;;;10.20;;
70545;SDS011;58098;51.680;5.134;2023-07-20T05:48:43;14.07;;;10.53;;
70545;SDS011;58098;51.680;5.134;2023-07-20T05:51:08;11.45;;;9.68;;
70545;SDS011;58098;51.680;5.134;2023-07-20T05:53:34;12.30;;;9.43;;
70545;SDS011;58098;51.680;5.134;2023-07-20T05:56:00;13.10;;;10.35;;
70545;SDS011;58098;51.680;5.134;2023-07-20T05:58:25;13.83;;;10.17;;
70545;SDS011;58098;51.680;5.134;2023-07-20T06:00:51;15.33;;;9.93;;
70545;SDS011;58098;51.680;5.134;2023-07-20T06:03:16;13.47;;;9.60;;
70545;SDS011;58098;51.680;5.134;2023-07-20T06:05:42;12.02;;;9.55;;
70545;SDS011;58098;51.680;5.134;2023-07-20T06:08:08;14.70;;;8.60;;
70545;SDS011;58098;51.680;5.134;2023-07-20T06:10:33;11.55;;;9.40;;
70545;SDS011;58098;51.680;5.134;2023-07-20T06:12:59;12.93;;;9.30;;
70545;SDS011;58098;51.680;5.134;2023-07-20T06:15:33;13.83;;;9.47;;
70545;SDS011;58098;51.680;5.134;2023-07-20T06:18:01;11.55;;;8.60;;
70545;SDS011;58098;51.680;5.134;2023-07-20T06:20:28;12.10;;;8.77;;
70545;SDS011;58098;51.680;5.134;2023-07-20T06:22:54;11.93;;;8.60;;
70545;SDS011;58098;51.680;5.134;2023-07-20T06:25:19;9.60;;;8.33;;
70545;SDS011;58098;51.680;5.134;2023-07-20T06:27:46;11.90;;;8.50;;
70545;SDS011;58098;51.680;5.134;2023-07-20T06:30:11;12.23;;;8.77;;
70545;SDS011;58098;51.680;5.134;2023-07-20T06:32:38;12.07;;;8.32;;
70545;SDS011;58098;51.680;5.134;2023-07-20T06:35:03;10.60;;;8.40;;
70545;SDS011;58098;51.680;5.134;2023-07-20T06:37:29;11.83;;;8.23;;
70545;SDS011;58098;51.680;5.134;2023-07-20T06:39:54;11.10;;;8.70;;
70545;SDS011;58098;51.680;5.134;2023-07-20T06:42:20;12.57;;;8.60;;
70545;SDS011;58098;51.680;5.134;2023-07-20T06:44:45;10.00;;;7.38;;
70545;SDS011;58098;51.680;5.134;2023-07-20T06:47:10;8.70;;;7.90;;
70545;SDS011;58098;51.680;5.134;2023-07-20T06:49:35;9.13;;;6.83;;
70545;SDS011;58098;51.680;5.134;2023-07-20T06:52:01;8.70;;;6.20;;
70545;SDS011;58098;51.680;5.134;2023-07-20T06:54:26;7.27;;;6.33;;
70545;SDS011;58098;51.680;5.134;2023-07-20T06:56:52;8.40;;;6.40;;
70545;SDS011;58098;51.680;5.134;2023-07-20T06:59:17;7.50;;;5.80;;
70545;SDS011;58098;51.680;5.134;2023-07-20T07:01:43;9.90;;;6.60;;
70545;SDS011;58098;51.680;5.134;2023-07-20T07:04:08;10.60;;;6.80;;
70545;SDS011;58098;51.680;5.134;2023-07-20T07:06:34;7.38;;;5.75;;
70545;SDS011;58098;51.680;5.134;2023-07-20T07:09:02;9.88;;;6.13;;
70545;SDS011;58098;51.680;5.134;2023-07-20T07:11:28;7.67;;;6.40;;
70545;SDS011;58098;51.680;5.134;2023-07-20T07:13:53;8.43;;;6.13;;
70545;SDS011;58098;51.680;5.134;2023-07-20T07:16:19;9.67;;;5.90;;
70545;SDS011;58098;51.680;5.134;2023-07-20T07:18:45;7.80;;;5.53;;
70545;SDS011;58098;51.680;5.134;2023-07-20T07:21:11;8.88;;;5.90;;
70545;SDS011;58098;51.680;5.134;2023-07-20T07:23:37;8.67;;;6.17;;
70545;SDS011;58098;51.680;5.134;2023-07-20T07:26:03;6.30;;;5.70;;
70545;SDS011;58098;51.680;5.134;2023-07-20T07:28:29;5.90;;;4.90;;
70545;SDS011;58098;51.680;5.134;2023-07-20T07:30:54;6.82;;;5.13;;
70545;SDS011;58098;51.680;5.134;2023-07-20T07:33:21;5.73;;;4.50;;
70545;SDS011;58098;51.680;5.134;2023-07-20T07:35:47;6.65;;;4.82;;
70545;SDS011;58098;51.680;5.134;2023-07-20T07:38:15;7.28;;;4.75;;
70545;SDS011;58098;51.680;5.134;2023-07-20T07:40:41;3.80;;;3.17;;
70545;SDS011;58098;51.680;5.134;2023-07-20T07:43:07;7.78;;;3.47;;
70545;SDS011;58098;51.680;5.134;2023-07-20T07:45:34;7.60;;;3.23;;
70545;SDS011;58098;51.680;5.134;2023-07-20T07:48:01;5.57;;;2.92;;
70545;SDS011;58098;51.680;5.134;2023-07-20T07:50:27;3.92;;;2.67;;
70545;SDS011;58098;51.680;5.134;2023-07-20T07:52:53;2.77;;;1.97;;
70545;SDS011;58098;51.680;5.134;2023-07-20T07:55:18;3.13;;;2.38;;
70545;SDS011;58098;51.680;5.134;2023-07-20T07:57:44;3.37;;;2.30;;
70545;SDS011;58098;51.680;5.134;2023-07-20T08:00:10;4.23;;;2.00;;
70545;SDS011;58098;51.680;5.134;2023-07-20T08:02:39;2.10;;;1.90;;
70545;SDS011;58098;51.680;5.134;2023-07-20T08:05:05;2.60;;;2.20;;
70545;SDS011;58098;51.680;5.134;2023-07-20T08:07:31;4.43;;;2.13;;
70545;SDS011;58098;51.680;5.134;2023-07-20T08:09:56;2.40;;;2.17;;
70545;SDS011;58098;51.680;5.134;2023-07-20T08:12:21;2.20;;;1.97;;
70545;SDS011;58098;51.680;5.134;2023-07-20T08:14:47;5.18;;;1.90;;
70545;SDS011;58098;51.680;5.134;2023-07-20T08:17:13;3.80;;;1.95;;
70545;SDS011;58098;51.680;5.134;2023-07-20T08:19:39;3.90;;;1.77;;
70545;SDS011;58098;51.680;5.134;2023-07-20T08:22:06;2.13;;;1.80;;
70545;SDS011;58098;51.680;5.134;2023-07-20T08:24:32;2.27;;;1.67;;
70545;SDS011;58098;51.680;5.134;2023-07-20T08:26:57;1.80;;;1.60;;
70545;SDS011;58098;51.680;5.134;2023-07-20T08:29:23;2.43;;;1.70;;
70545;SDS011;58098;51.680;5.134;2023-07-20T08:31:49;4.18;;;1.88;;
70545;SDS011;58098;51.680;5.134;2023-07-20T08:34:14;1.80;;;1.70;;
70545;SDS011;58098;51.680;5.134;2023-07-20T08:36:40;1.87;;;1.20;;
70545;SDS011;58098;51.680;5.134;2023-07-20T08:39:05;2.03;;;1.83;;
70545;SDS011;58098;51.680;5.134;2023-07-20T08:41:30;2.67;;;1.87;;
70545;SDS011;58098;51.680;5.134;2023-07-20T08:43:56;1.73;;;1.63;;
70545;SDS011;58098;51.680;5.134;2023-07-20T08:46:23;3.53;;;1.90;;
70545;SDS011;58098;51.680;5.134;2023-07-20T08:48:51;2.97;;;1.90;;
70545;SDS011;58098;51.680;5.134;2023-07-20T08:51:17;2.97;;;1.87;;
70545;SDS011;58098;51.680;5.134;2023-07-20T08:53:45;2.22;;;1.65;;
70545;SDS011;58098;51.680;5.134;2023-07-20T08:56:10;4.18;;;1.63;;
70545;SDS011;58098;51.680;5.134;2023-07-20T08:58:37;2.20;;;1.50;;
70545;SDS011;58098;51.680;5.134;2023-07-20T09:01:04;2.65;;;1.98;;
70545;SDS011;58098;51.680;5.134;2023-07-20T09:03:30;1.97;;;1.47;;
70545;SDS011;58098;51.680;5.134;2023-07-20T09:05:55;2.17;;;1.70;;
70545;SDS011;58098;51.680;5.134;2023-07-20T09:08:20;1.77;;;1.30;;
70545;SDS011;58098;51.680;5.134;2023-07-20T09:10:45;1.80;;;1.37;;
70545;SDS011;58098;51.680;5.134;2023-07-20T09:13:15;2.33;;;1.60;;
70545;SDS011;58098;51.680;5.134;2023-07-20T09:15:45;2.70;;;1.60;;
70545;SDS011;58098;51.680;5.134;2023-07-20T09:18:28;2.47;;;1.90;;
70545;SDS011;58098;51.680;5.134;2023-07-20T09:21:03;2.28;;;1.70;;
70545;SDS011;58098;51.680;5.134;2023-07-20T09:23:33;2.92;;;1.90;;
70545;SDS011;58098;51.680;5.134;2023-07-20T09:26:00;2.95;;;1.70;;
70545;SDS011;58098;51.680;5.134;2023-07-20T09:28:39;2.60;;;1.57;;
70545;SDS011;58098;51.680;5.134;2023-07-20T09:31:15;3.05;;;2.00;;
70545;SDS011;58098;51.680;5.134;2023-07-20T09:33:42;3.53;;;1.60;;
70545;SDS011;58098;51.680;5.134;2023-07-20T09:36:09;3.50;;;1.80;;
70545;SDS011;58098;51.680;5.134;2023-07-20T09:38:36;1.65;;;1.50;;
70545;SDS011;58098;51.680;5.134;2023-07-20T09:41:02;3.15;;;1.98;;
70545;SDS011;58098;51.680;5.134;2023-07-20T09:43:30;2.10;;;1.63;;
70545;SDS011;58098;51.680;5.134;2023-07-20T09:45:57;2.10;;;1.60;;
70545;SDS011;58098;51.680;5.134;2023-07-20T09:48:24;2.80;;;1.80;;
70545;SDS011;58098;51.680;5.134;2023-07-20T09:50:51;4.13;;;1.60;;
70545;SDS011;58098;51.680;5.134;2023-07-20T09:53:17;2.10;;;1.90;;
70545;SDS011;58098;51.680;5.134;2023-07-20T09:55:46;2.90;;;1.90;;
70545;SDS011;58098;51.680;5.134;2023-07-20T09:58:12;1.90;;;1.70;;
70545;SDS011;58098;51.680;5.134;2023-07-20T10:00:38;3.05;;;1.90;;
70545;SDS011;58098;51.680;5.134;2023-07-20T10:03:06;3.55;;;1.88;;
70545;SDS011;58098;51.680;5.134;2023-07-20T10:05:36;2.97;;;1.83;;
70545;SDS011;58098;51.680;5.134;2023-07-20T10:08:09;3.75;;;2.00;;
70545;SDS011;58098;51.680;5.134;2023-07-20T10:10:37;3.28;;;2.03;;
70545;SDS011;58098;51.680;5.134;2023-07-20T10:13:05;2.90;;;1.95;;
70545;SDS011;58098;51.680;5.134;2023-07-20T10:15:40;2.53;;;1.88;;
70545;SDS011;58098;51.680;5.134;2023-07-20T10:18:22;2.37;;;1.80;;
70545;SDS011;58098;51.680;5.134;2023-07-20T10:20:54;2.45;;;1.95;;
70545;SDS011;58098;51.680;5.134;2023-07-20T10:23:20;2.53;;;2.30;;
70545;SDS011;58098;51.680;5.134;2023-07-20T10:25:47;3.30;;;2.25;;
70545;SDS011;58098;51.680;5.134;2023-07-20T10:28:13;3.53;;;2.13;;
70545;SDS011;58098;51.680;5.134;2023-07-20T10:30:38;2.00;;;1.57;;
70545;SDS011;58098;51.680;5.134;2023-07-20T10:33:05;2.20;;;2.00;;
70545;SDS011;58098;51.680;5.134;2023-07-20T10:35:31;2.80;;;2.43;;
70545;SDS011;58098;51.680;5.134;2023-07-20T10:38:19;2.30;;;1.85;;
70545;SDS011;58098;51.680;5.134;2023-07-20T10:40:54;3.30;;;2.10;;
70545;SDS011;58098;51.680;5.134;2023-07-20T10:43:20;2.33;;;2.00;;
70545;SDS011;58098;51.680;5.134;2023-07-20T10:45:52;2.53;;;2.07;;
70545;SDS011;58098;51.680;5.134;2023-07-20T10:48:19;3.10;;;2.05;;
70545;SDS011;58098;51.680;5.134;2023-07-20T10:50:46;3.63;;;2.35;;
70545;SDS011;58098;51.680;5.134;2023-07-20T10:53:32;4.70;;;2.10;;
70545;SDS011;58098;51.680;5.134;2023-07-20T10:56:12;4.03;;;2.73;;
70545;SDS011;58098;51.680;5.134;2023-07-20T10:58:39;2.90;;;2.40;;
70545;SDS011;58098;51.680;5.134;2023-07-20T11:01:06;5.10;;;2.30;;
70545;SDS011;58098;51.680;5.134;2023-07-20T11:03:37;4.07;;;2.20;;
70545;SDS011;58098;51.680;5.134;2023-07-20T11:09:07;2.78;;;2.50;;
70545;SDS011;58098;51.680;5.134;2023-07-20T11:11:36;2.60;;;2.40;;
70545;SDS011;58098;51.680;5.134;2023-07-20T11:16:36;2.77;;;2.17;;
70545;SDS011;58098;51.680;5.134;2023-07-20T11:21:44;6.40;;;2.80;;
70545;SDS011;58098;51.680;5.134;2023-07-20T11:24:10;2.58;;;2.20;;
70545;SDS011;58098;51.680;5.134;2023-07-20T11:26:44;3.42;;;2.58;;
70545;SDS011;58098;51.680;5.134;2023-07-20T11:29:11;3.60;;;2.47;;
70545;SDS011;58098;51.680;5.134;2023-07-20T11:31:41;4.72;;;2.50;;
70545;SDS011;58098;51.680;5.134;2023-07-20T11:36:36;2.63;;;2.00;;
70545;SDS011;58098;51.680;5.134;2023-07-20T11:39:01;4.97;;;1.97;;
70545;SDS011;58098;51.680;5.134;2023-07-20T11:41:29;2.25;;;1.60;;
70545;SDS011;58098;51.680;5.134;2023-07-20T11:43:55;3.90;;;2.60;;
70545;SDS011;58098;51.680;5.134;2023-07-20T11:46:20;3.50;;;1.97;;
70545;SDS011;58098;51.680;5.134;2023-07-20T11:48:46;2.58;;;2.00;;
70545;SDS011;58098;51.680;5.134;2023-07-20T11:51:15;1.70;;;1.40;;
70545;SDS011;58098;51.680;5.134;2023-07-20T11:53:44;4.20;;;1.77;;
70545;SDS011;58098;51.680;5.134;2023-07-20T11:56:11;3.60;;;1.60;;
70545;SDS011;58098;51.680;5.134;2023-07-20T11:58:41;4.10;;;1.88;;
70545;SDS011;58098;51.680;5.134;2023-07-20T12:01:08;2.60;;;1.40;;
70545;SDS011;58098;51.680;5.134;2023-07-20T12:03:34;2.30;;;1.63;;
70545;SDS011;58098;51.680;5.134;2023-07-20T12:06:06;3.63;;;1.60;;
70545;SDS011;58098;51.680;5.134;2023-07-20T12:08:32;3.05;;;2.00;;
70545;SDS011;58098;51.680;5.134;2023-07-20T12:10:58;3.40;;;2.57;;
70545;SDS011;58098;51.680;5.134;2023-07-20T12:13:23;5.40;;;2.27;;
70545;SDS011;58098;51.680;5.134;2023-07-20T12:15:52;4.55;;;2.40;;
70545;SDS011;58098;51.680;5.134;2023-07-20T12:18:22;2.95;;;2.42;;
70545;SDS011;58098;51.680;5.134;2023-07-20T12:20:48;4.03;;;2.40;;
70545;SDS011;58098;51.680;5.134;2023-07-20T12:23:23;3.43;;;2.63;;
70545;SDS011;58098;51.680;5.134;2023-07-20T12:25:49;3.42;;;3.00;;
70545;SDS011;58098;51.680;5.134;2023-07-20T12:28:16;3.00;;;2.40;;
70545;SDS011;58098;51.680;5.134;2023-07-20T12:30:43;3.88;;;2.65;;
70545;SDS011;58098;51.680;5.134;2023-07-20T12:33:09;3.97;;;2.10;;
70545;SDS011;58098;51.680;5.134;2023-07-20T12:35:35;2.73;;;2.40;;
70545;SDS011;58098;51.680;5.134;2023-07-20T12:38:00;3.40;;;2.90;;
70545;SDS011;58098;51.680;5.134;2023-07-20T12:40:26;2.97;;;2.40;;
70545;SDS011;58098;51.680;5.134;2023-07-20T12:42:51;4.20;;;2.30;;
70545;SDS011;58098;51.680;5.134;2023-07-20T12:45:17;3.63;;;2.22;;
70545;SDS011;58098;51.680;5.134;2023-07-20T12:47:43;3.30;;;2.63;;
70545;SDS011;58098;51.680;5.134;2023-07-20T12:50:09;3.13;;;2.83;;
70545;SDS011;58098;51.680;5.134;2023-07-20T12:52:38;3.10;;;2.80;;
70545;SDS011;58098;51.680;5.134;2023-07-20T12:55:04;2.97;;;2.40;;
70545;SDS011;58098;51.680;5.134;2023-07-20T12:57:31;3.10;;;2.40;;
70545;SDS011;58098;51.680;5.134;2023-07-20T12:59:56;3.25;;;2.92;;
70545;SDS011;58098;51.680;5.134;2023-07-20T13:02:22;4.50;;;3.23;;
70545;SDS011;58098;51.680;5.134;2023-07-20T13:04:47;5.50;;;2.60;;
70545;SDS011;58098;51.680;5.134;2023-07-20T13:07:13;8.90;;;3.87;;
70545;SDS011;58098;51.680;5.134;2023-07-20T13:09:38;3.37;;;2.90;;
70545;SDS011;58098;51.680;5.134;2023-07-20T13:12:04;4.53;;;2.70;;
70545;SDS011;58098;51.680;5.134;2023-07-20T13:14:29;6.27;;;3.00;;
70545;SDS011;58098;51.680;5.134;2023-07-20T13:16:58;3.42;;;2.63;;
70545;SDS011;58098;51.680;5.134;2023-07-20T13:19:23;5.73;;;2.87;;
70545;SDS011;58098;51.680;5.134;2023-07-20T13:21:48;3.85;;;2.78;;
70545;SDS011;58098;51.680;5.134;2023-07-20T13:24:14;5.47;;;2.67;;
70545;SDS011;58098;51.680;5.134;2023-07-20T13:26:40;4.43;;;2.60;;
70545;SDS011;58098;51.680;5.134;2023-07-20T13:29:05;3.63;;;2.40;;
70545;SDS011;58098;51.680;5.134;2023-07-20T13:31:31;3.87;;;2.40;;
70545;SDS011;58098;51.680;5.134;2023-07-20T13:33:56;2.78;;;2.40;;
70545;SDS011;58098;51.680;5.134;2023-07-20T13:36:23;4.55;;;2.80;;
70545;SDS011;58098;51.680;5.134;2023-07-20T13:38:49;3.20;;;2.80;;
70545;SDS011;58098;51.680;5.134;2023-07-20T13:41:14;2.97;;;2.50;;
70545;SDS011;58098;51.680;5.134;2023-07-20T13:43:41;3.22;;;2.55;;
70545;SDS011;58098;51.680;5.134;2023-07-20T13:46:06;4.83;;;2.53;;
70545;SDS011;58098;51.680;5.134;2023-07-20T13:48:32;2.87;;;2.10;;
70545;SDS011;58098;51.680;5.134;2023-07-20T13:50:57;2.50;;;2.30;;
70545;SDS011;58098;51.680;5.134;2023-07-20T13:53:22;3.93;;;2.37;;
70545;SDS011;58098;51.680;5.134;2023-07-20T13:55:48;5.07;;;2.55;;
70545;SDS011;58098;51.680;5.134;2023-07-20T13:58:13;2.70;;;2.30;;
70545;SDS011;58098;51.680;5.134;2023-07-20T14:00:39;3.90;;;1.80;;
70545;SDS011;58098;51.680;5.134;2023-07-20T14:03:04;2.58;;;1.80;;
70545;SDS011;58098;51.680;5.134;2023-07-20T14:05:30;3.00;;;2.57;;
70545;SDS011;58098;51.680;5.134;2023-07-20T14:07:55;4.77;;;2.90;;
70545;SDS011;58098;51.680;5.134;2023-07-20T14:10:20;3.13;;;2.37;;
70545;SDS011;58098;51.680;5.134;2023-07-20T14:12:46;2.37;;;2.17;;
70545;SDS011;58098;51.680;5.134;2023-07-20T14:15:11;4.37;;;2.10;;
70545;SDS011;58098;51.680;5.134;2023-07-20T14:17:37;3.10;;;2.17;;
70545;SDS011;58098;51.680;5.134;2023-07-20T14:20:11;5.03;;;2.20;;
70545;SDS011;58098;51.680;5.134;2023-07-20T14:22:42;2.85;;;2.00;;
70545;SDS011;58098;51.680;5.134;2023-07-20T14:25:07;2.67;;;1.93;;
70545;SDS011;58098;51.680;5.134;2023-07-20T14:27:33;2.85;;;2.30;;
70545;SDS011;58098;51.680;5.134;2023-07-20T14:29:58;3.77;;;1.97;;
70545;SDS011;58098;51.680;5.134;2023-07-20T14:32:24;2.43;;;2.03;;
70545;SDS011;58098;51.680;5.134;2023-07-20T14:34:49;2.60;;;2.40;;
70545;SDS011;58098;51.680;5.134;2023-07-20T14:37:14;2.40;;;2.20;;
70545;SDS011;58098;51.680;5.134;2023-07-20T14:39:40;2.75;;;2.55;;
70545;SDS011;58098;51.680;5.134;2023-07-20T14:42:06;3.47;;;2.40;;
70545;SDS011;58098;51.680;5.134;2023-07-20T14:44:32;3.58;;;2.30;;
70545;SDS011;58098;51.680;5.134;2023-07-20T14:46:58;4.10;;;2.80;;
70545;SDS011;58098;51.680;5.134;2023-07-20T14:49:25;3.00;;;2.10;;